sensor_id;sensor_type;location;lat;lon;timestamp;pressure;altitude;pressure_sealevel;temperature;humidity
1472;BME280;963;42.644;23.336;2022-08-03T00:01:33;94202.84;;;22.44;52.48
1472;BME280;963;42.644;23.336;2022-08-03T00:03:58;94200.19;;;22.44;52.98
1472;BME280;963;42.644;23.336;2022-08-03T00:06:24;94213.47;;;22.48;53.68
1472;BME280;963;42.644;23.336;2022-08-03T00:08:49;94203.28;;;22.42;53.37
1472;BME280;963;42.644;23.336;2022-08-03T00:11:15;94210.34;;;22.49;53.87
1472;BME280;963;42.644;23.336;2022-08-03T00:13:41;94214.53;;;22.50;53.46
1472;BME280;963;42.644;23.336;2022-08-03T00:16:06;94210.66;;;22.51;53.39
1472;BME280;963;42.644;23.336;2022-08-03T00:18:31;94222.25;;;22.48;53.58
1472;BME280;963;42.644;23.336;2022-08-03T00:20:57;94206.28;;;22.44;53.86
1472;BME280;963;42.644;23.336;2022-08-03T00:23:22;94203.72;;;22.41;54.06
1472;BME280;963;42.644;23.336;2022-08-03T00:25:48;94211.88;;;22.37;54.43
1472;BME280;963;42.644;23.336;2022-08-03T00:28:13;94194.41;;;22.33;53.73
1472;BME280;963;42.644;23.336;2022-08-03T00:30:39;94209.19;;;22.25;53.20
1472;BME280;963;42.644;23.336;2022-08-03T00:33:04;94208.13;;;22.22;52.86
1472;BME280;963;42.644;23.336;2022-08-03T00:35:30;94203.41;;;22.13;53.16
1472;BME280;963;42.644;23.336;2022-08-03T00:37:55;94210.69;;;22.13;53.59
1472;BME280;963;42.644;23.336;2022-08-03T00:40:22;94210.25;;;22.14;53.80
1472;BME280;963;42.644;23.336;2022-08-03T00:42:50;94208.53;;;22.21;54.11
1472;BME280;963;42.644;23.336;2022-08-03T00:45:20;94197.81;;;22.21;53.49
1472;BME280;963;42.644;23.336;2022-08-03T00:47:46;94216.78;;;22.26;53.22
1472;BME280;963;42.644;23.336;2022-08-03T00:50:12;94206.50;;;22.25;54.06
1472;BME280;963;42.644;23.336;2022-08-03T00:52:38;94204.56;;;22.25;54.83
1472;BME280;963;42.644;23.336;2022-08-03T00:55:04;94202.97;;;22.28;55.10
1472;BME280;963;42.644;23.336;2022-08-03T00:57:31;94203.72;;;22.28;54.76
1472;BME280;963;42.644;23.336;2022-08-03T00:59:57;94207.69;;;22.24;53.95
1472;BME280;963;42.644;23.336;2022-08-03T01:02:25;94200.19;;;22.19;54.27
1472;BME280;963;42.644;23.336;2022-08-03T01:04:51;94193.97;;;22.09;53.69
1472;BME280;963;42.644;23.336;2022-08-03T01:10:14;94196.63;;;21.96;53.91
1472;BME280;963;42.644;23.336;2022-08-03T01:15:45;94193.81;;;21.87;53.81
1472;BME280;963;42.644;23.336;2022-08-03T01:18:23;94192.75;;;21.84;54.45
1472;BME280;963;42.644;23.336;2022-08-03T01:20:52;94197.25;;;21.88;55.63
1472;BME280;963;42.644;23.336;2022-08-03T01:23:33;94181.94;;;21.88;55.31
1472;BME280;963;42.644;23.336;2022-08-03T01:28:57;94180.44;;;21.87;55.45
1472;BME280;963;42.644;23.336;2022-08-03T01:31:32;94188.47;;;21.87;55.59
1472;BME280;963;42.644;23.336;2022-08-03T01:34:02;94182.78;;;21.85;56.06
1472;BME280;963;42.644;23.336;2022-08-03T01:36:33;94192.75;;;21.84;56.20
1472;BME280;963;42.644;23.336;2022-08-03T01:39:03;94188.13;;;21.85;56.71
1472;BME280;963;42.644;23.336;2022-08-03T01:41:35;94204.22;;;21.85;56.97
1472;BME280;963;42.644;23.336;2022-08-03T01:44:02;94184.38;;;21.82;57.73
1472;BME280;963;42.644;23.336;2022-08-03T01:46:31;94202.06;;;21.80;58.41
1472;BME280;963;42.644;23.336;2022-08-03T01:48:58;94198.31;;;21.77;59.04
1472;BME280;963;42.644;23.336;2022-08-03T01:51:25;94191.88;;;21.62;59.78
1472;BME280;963;42.644;23.336;2022-08-03T01:53:52;94201.50;;;21.60;60.16
1472;BME280;963;42.644;23.336;2022-08-03T01:56:21;94191.72;;;21.53;60.01
1472;BME280;963;42.644;23.336;2022-08-03T01:58:48;94200.59;;;21.50;60.35
1472;BME280;963;42.644;23.336;2022-08-03T02:01:15;94197.50;;;21.51;60.56
1472;BME280;963;42.644;23.336;2022-08-03T02:03:43;94201.03;;;21.48;60.18
1472;BME280;963;42.644;23.336;2022-08-03T02:06:11;94204.03;;;21.50;59.43
1472;BME280;963;42.644;23.336;2022-08-03T02:08:39;94204.34;;;21.52;59.08
1472;BME280;963;42.644;23.336;2022-08-03T02:11:06;94202.44;;;21.53;59.44
1472;BME280;963;42.644;23.336;2022-08-03T02:13:33;94201.34;;;21.50;59.42
1472;BME280;963;42.644;23.336;2022-08-03T02:16:00;94195.03;;;21.44;59.37
1472;BME280;963;42.644;23.336;2022-08-03T02:18:27;94205.50;;;21.39;60.19
1472;BME280;963;42.644;23.336;2022-08-03T02:20:54;94198.44;;;21.32;60.25
1472;BME280;963;42.644;23.336;2022-08-03T02:23:20;94198.09;;;21.30;60.46
1472;BME280;963;42.644;23.336;2022-08-03T02:26:07;94192.44;;;21.28;59.65
1472;BME280;963;42.644;23.336;2022-08-03T02:28:39;94189.59;;;21.19;59.75
1472;BME280;963;42.644;23.336;2022-08-03T02:31:11;94199.44;;;21.22;60.13
1472;BME280;963;42.644;23.336;2022-08-03T02:33:42;94189.59;;;21.19;59.79
1472;BME280;963;42.644;23.336;2022-08-03T02:36:10;94188.81;;;21.18;59.73
1472;BME280;963;42.644;23.336;2022-08-03T02:38:40;94198.84;;;21.14;60.06
1472;BME280;963;42.644;23.336;2022-08-03T02:41:14;94189.09;;;21.08;60.21
1472;BME280;963;42.644;23.336;2022-08-03T02:43:42;94193.28;;;21.09;60.19
1472;BME280;963;42.644;23.336;2022-08-03T02:46:12;94187.94;;;21.09;60.10
1472;BME280;963;42.644;23.336;2022-08-03T02:48:39;94211.47;;;21.14;60.39
1472;BME280;963;42.644;23.336;2022-08-03T02:51:06;94188.59;;;21.13;60.62
1472;BME280;963;42.644;23.336;2022-08-03T02:53:33;94183.44;;;21.06;60.72
1472;BME280;963;42.644;23.336;2022-08-03T02:56:01;94208.56;;;21.08;60.87
1472;BME280;963;42.644;23.336;2022-08-03T02:58:30;94185.44;;;21.02;60.76
1472;BME280;963;42.644;23.336;2022-08-03T03:00:56;94199.47;;;21.06;60.69
1472;BME280;963;42.644;23.336;2022-08-03T03:03:22;94198.81;;;21.02;60.93
1472;BME280;963;42.644;23.336;2022-08-03T03:05:49;94185.13;;;21.00;61.09
1472;BME280;963;42.644;23.336;2022-08-03T03:08:17;94208.66;;;21.05;61.19
1472;BME280;963;42.644;23.336;2022-08-03T03:10:43;94208.66;;;21.05;61.26
1472;BME280;963;42.644;23.336;2022-08-03T03:13:09;94204.81;;;21.06;61.51
1472;BME280;963;42.644;23.336;2022-08-03T03:15:37;94204.16;;;21.02;61.67
1472;BME280;963;42.644;23.336;2022-08-03T03:18:04;94218.47;;;20.95;61.83
1472;BME280;963;42.644;23.336;2022-08-03T03:20:31;94226.59;;;20.91;62.25
1472;BME280;963;42.644;23.336;2022-08-03T03:23:00;94226.59;;;20.91;61.56
1472;BME280;963;42.644;23.336;2022-08-03T03:25:30;94222.84;;;20.89;61.54
1472;BME280;963;42.644;23.336;2022-08-03T03:27:57;94224.94;;;20.81;61.20
1472;BME280;963;42.644;23.336;2022-08-03T03:30:24;94230.09;;;20.72;61.64
1472;BME280;963;42.644;23.336;2022-08-03T03:32:49;94231.78;;;20.66;61.87
1472;BME280;963;42.644;23.336;2022-08-03T03:35:15;94242.47;;;20.66;61.71
1472;BME280;963;42.644;23.336;2022-08-03T03:37:41;94238.63;;;20.67;61.99
1472;BME280;963;42.644;23.336;2022-08-03T03:40:07;94234.78;;;20.68;61.96
1472;BME280;963;42.644;23.336;2022-08-03T03:42:33;94227.28;;;20.47;62.44
1472;BME280;963;42.644;23.336;2022-08-03T03:45:02;94230.63;;;20.51;62.52
1472;BME280;963;42.644;23.336;2022-08-03T03:47:28;94238.72;;;20.47;62.33
1472;BME280;963;42.644;23.336;2022-08-03T03:49:56;94231.31;;;20.35;62.91
1472;BME280;963;42.644;23.336;2022-08-03T03:52:21;94238.44;;;20.42;62.85
1472;BME280;963;42.644;23.336;2022-08-03T03:54:47;94235.44;;;20.40;62.70
1472;BME280;963;42.644;23.336;2022-08-03T03:57:12;94236.06;;;20.47;62.41
1472;BME280;963;42.644;23.336;2022-08-03T03:59:38;94247.84;;;20.50;61.86
1472;BME280;963;42.644;23.336;2022-08-03T04:02:05;94243.66;;;20.49;62.09
1472;BME280;963;42.644;23.336;2022-08-03T04:04:32;94239.81;;;20.50;62.04
1472;BME280;963;42.644;23.336;2022-08-03T04:07:16;94232.97;;;20.65;61.92
1472;BME280;963;42.644;23.336;2022-08-03T04:10:02;94237.63;;;20.77;61.51
1472;BME280;963;42.644;23.336;2022-08-03T04:12:50;94246.91;;;20.89;61.27
1472;BME280;963;42.644;23.336;2022-08-03T04:15:18;94231.44;;;20.97;61.07
1472;BME280;963;42.644;23.336;2022-08-03T04:17:45;94237.75;;;21.03;61.23
1472;BME280;963;42.644;23.336;2022-08-03T04:20:12;94238.50;;;21.03;60.79
1472;BME280;963;42.644;23.336;2022-08-03T04:22:38;94243.69;;;21.10;61.05
1472;BME280;963;42.644;23.336;2022-08-03T04:25:06;94253.03;;;21.18;60.73
1472;BME280;963;42.644;23.336;2022-08-03T04:27:37;94241.09;;;21.23;60.53
1472;BME280;963;42.644;23.336;2022-08-03T04:30:05;94233.53;;;21.18;60.49
1472;BME280;963;42.644;23.336;2022-08-03T04:32:31;94237.75;;;21.19;60.15
1472;BME280;963;42.644;23.336;2022-08-03T04:34:58;94236.88;;;21.38;59.87
1472;BME280;963;42.644;23.336;2022-08-03T04:39:56;94234.19;;;21.38;59.57
1472;BME280;963;42.644;23.336;2022-08-03T04:42:24;94237.00;;;21.47;59.69
1472;BME280;963;42.644;23.336;2022-08-03T04:44:51;94246.13;;;21.50;60.19
1472;BME280;963;42.644;23.336;2022-08-03T04:47:18;94260.16;;;21.54;60.80
1472;BME280;963;42.644;23.336;2022-08-03T04:49:44;94248.53;;;21.61;60.56
1472;BME280;963;42.644;23.336;2022-08-03T04:52:10;94251.31;;;21.70;60.22
1472;BME280;963;42.644;23.336;2022-08-03T04:54:43;94255.63;;;21.80;60.44
1472;BME280;963;42.644;23.336;2022-08-03T04:57:10;94258.09;;;21.87;60.46
1472;BME280;963;42.644;23.336;2022-08-03T04:59:36;94246.22;;;21.88;60.84
1472;BME280;963;42.644;23.336;2022-08-03T05:02:01;94253.81;;;21.90;60.53
1472;BME280;963;42.644;23.336;2022-08-03T05:04:27;94259.41;;;21.95;60.38
1472;BME280;963;42.644;23.336;2022-08-03T05:06:52;94252.44;;;21.98;59.88
1472;BME280;963;42.644;23.336;2022-08-03T05:09:18;94268.44;;;22.01;59.74
1472;BME280;963;42.644;23.336;2022-08-03T05:11:43;94305.00;;;21.79;60.08
1472;BME280;963;42.644;23.336;2022-08-03T05:14:09;94275.16;;;21.93;60.09
1472;BME280;963;42.644;23.336;2022-08-03T05:16:34;94273.59;;;22.08;59.61
1472;BME280;963;42.644;23.336;2022-08-03T05:18:59;94276.59;;;22.23;58.97
1472;BME280;963;42.644;23.336;2022-08-03T05:21:25;94263.97;;;22.24;58.66
1472;BME280;963;42.644;23.336;2022-08-03T05:23:50;94285.75;;;22.38;58.28
1472;BME280;963;42.644;23.336;2022-08-03T05:26:16;94277.50;;;22.33;58.10
1472;BME280;963;42.644;23.336;2022-08-03T05:28:41;94284.25;;;22.37;57.83
1472;BME280;963;42.644;23.336;2022-08-03T05:31:06;94287.47;;;22.45;57.22
1472;BME280;963;42.644;23.336;2022-08-03T05:33:32;94311.81;;;22.51;57.69
1472;BME280;963;42.644;23.336;2022-08-03T05:35:57;94299.13;;;22.26;57.84
1472;BME280;963;42.644;23.336;2022-08-03T05:38:24;94297.50;;;22.15;58.15
1472;BME280;963;42.644;23.336;2022-08-03T05:40:50;94294.28;;;21.79;59.16
1472;BME280;963;42.644;23.336;2022-08-03T05:43:15;94300.47;;;21.63;59.48
1472;BME280;963;42.644;23.336;2022-08-03T05:45:41;94292.19;;;21.58;59.77
1472;BME280;963;42.644;23.336;2022-08-03T05:48:06;94294.94;;;21.83;59.01
1472;BME280;963;42.644;23.336;2022-08-03T05:50:32;94292.38;;;21.92;58.89
1472;BME280;963;42.644;23.336;2022-08-03T05:52:57;94308.47;;;21.92;59.25
1472;BME280;963;42.644;23.336;2022-08-03T05:55:22;94286.81;;;21.87;59.42
1472;BME280;963;42.644;23.336;2022-08-03T05:57:48;94302.88;;;22.15;58.63
1472;BME280;963;42.644;23.336;2022-08-03T06:00:14;94293.13;;;21.80;58.71
1472;BME280;963;42.644;23.336;2022-08-03T06:02:39;94314.66;;;22.05;58.99
1472;BME280;963;42.644;23.336;2022-08-03T06:05:05;94294.50;;;22.13;58.24
1472;BME280;963;42.644;23.336;2022-08-03T06:07:31;94303.75;;;22.38;57.56
1472;BME280;963;42.644;23.336;2022-08-03T06:09:57;94314.91;;;22.49;57.24
1472;BME280;963;42.644;23.336;2022-08-03T06:12:23;94316.84;;;22.61;57.27
1472;BME280;963;42.644;23.336;2022-08-03T06:14:48;94320.59;;;22.76;56.80
1472;BME280;963;42.644;23.336;2022-08-03T06:17:14;94308.91;;;22.70;57.31
1472;BME280;963;42.644;23.336;2022-08-03T06:19:39;94310.19;;;22.78;56.56
1472;BME280;963;42.644;23.336;2022-08-03T06:22:05;94296.03;;;22.91;55.95
1472;BME280;963;42.644;23.336;2022-08-03T06:24:30;94311.69;;;22.92;55.73
1472;BME280;963;42.644;23.336;2022-08-03T06:26:57;94323.84;;;22.84;56.61
1472;BME280;963;42.644;23.336;2022-08-03T06:29:22;94299.03;;;22.93;56.74
1472;BME280;963;42.644;23.336;2022-08-03T06:31:47;94309.25;;;22.72;56.98
1472;BME280;963;42.644;23.336;2022-08-03T06:34:13;94301.16;;;22.98;56.35
1472;BME280;963;42.644;23.336;2022-08-03T06:36:38;94306.38;;;23.27;54.79
1472;BME280;963;42.644;23.336;2022-08-03T06:39:04;94306.56;;;23.32;54.95
1472;BME280;963;42.644;23.336;2022-08-03T06:41:29;94303.00;;;23.35;55.55
1472;BME280;963;42.644;23.336;2022-08-03T06:43:55;94320.97;;;23.26;56.45
1472;BME280;963;42.644;23.336;2022-08-03T06:46:20;94300.66;;;23.37;55.45
1472;BME280;963;42.644;23.336;2022-08-03T06:48:46;94300.72;;;23.59;54.90
1472;BME280;963;42.644;23.336;2022-08-03T06:51:12;94289.84;;;23.63;54.55
1472;BME280;963;42.644;23.336;2022-08-03T06:53:37;94311.78;;;23.83;53.52
1472;BME280;963;42.644;23.336;2022-08-03T06:56:06;94294.22;;;23.91;53.84
1472;BME280;963;42.644;23.336;2022-08-03T06:58:32;94310.72;;;24.02;53.86
1472;BME280;963;42.644;23.336;2022-08-03T07:00:58;94298.06;;;24.12;53.67
1472;BME280;963;42.644;23.336;2022-08-03T07:03:23;94297.69;;;24.23;53.42
1472;BME280;963;42.644;23.336;2022-08-03T07:05:49;94289.94;;;24.25;53.22
1472;BME280;963;42.644;23.336;2022-08-03T07:08:16;94298.97;;;24.31;52.77
1472;BME280;963;42.644;23.336;2022-08-03T07:10:42;94294.53;;;24.46;52.75
1472;BME280;963;42.644;23.336;2022-08-03T07:13:07;94286.78;;;24.48;52.58
1472;BME280;963;42.644;23.336;2022-08-03T07:15:33;94294.41;;;24.50;52.75
1472;BME280;963;42.644;23.336;2022-08-03T07:17:59;94297.75;;;24.63;52.79
1472;BME280;963;42.644;23.336;2022-08-03T07:20:25;94291.50;;;24.75;52.20
1472;BME280;963;42.644;23.336;2022-08-03T07:22:50;94295.56;;;24.80;52.40
1472;BME280;963;42.644;23.336;2022-08-03T07:25:16;94311.97;;;24.63;53.20
1472;BME280;963;42.644;23.336;2022-08-03T07:27:45;94300.34;;;24.76;53.03
1472;BME280;963;42.644;23.336;2022-08-03T07:30:12;94302.34;;;24.93;52.63
1472;BME280;963;42.644;23.336;2022-08-03T07:32:37;94298.94;;;25.02;51.53
1472;BME280;963;42.644;23.336;2022-08-03T07:35:04;94317.34;;;25.13;51.24
1472;BME280;963;42.644;23.336;2022-08-03T07:37:30;94306.75;;;25.18;51.34
1472;BME280;963;42.644;23.336;2022-08-03T07:39:56;94301.38;;;25.28;50.13
1472;BME280;963;42.644;23.336;2022-08-03T07:42:22;94311.25;;;25.31;49.52
1472;BME280;963;42.644;23.336;2022-08-03T07:44:48;94304.38;;;25.30;49.40
1472;BME280;963;42.644;23.336;2022-08-03T07:47:27;94295.53;;;25.20;50.13
1472;BME280;963;42.644;23.336;2022-08-03T07:49:53;94294.06;;;25.37;49.48
1472;BME280;963;42.644;23.336;2022-08-03T07:52:19;94310.53;;;25.48;47.85
1472;BME280;963;42.644;23.336;2022-08-03T07:55:04;94319.66;;;25.51;47.85
1472;BME280;963;42.644;23.336;2022-08-03T07:57:30;94312.16;;;25.64;47.55
1472;BME280;963;42.644;23.336;2022-08-03T07:59:56;94305.28;;;25.63;46.47
1472;BME280;963;42.644;23.336;2022-08-03T08:02:21;94306.97;;;25.79;46.57
1472;BME280;963;42.644;23.336;2022-08-03T08:04:46;94308.31;;;25.83;46.66
1472;BME280;963;42.644;23.336;2022-08-03T08:07:12;94306.66;;;25.86;46.88
1472;BME280;963;42.644;23.336;2022-08-03T08:09:37;94308.75;;;25.91;45.36
1472;BME280;963;42.644;23.336;2022-08-03T08:12:03;94302.75;;;25.87;45.76
1472;BME280;963;42.644;23.336;2022-08-03T08:14:28;94305.59;;;25.93;46.31
1472;BME280;963;42.644;23.336;2022-08-03T08:16:54;94315.03;;;25.79;46.54
1472;BME280;963;42.644;23.336;2022-08-03T08:19:19;94306.19;;;25.97;45.90
1472;BME280;963;42.644;23.336;2022-08-03T08:21:45;94300.47;;;26.13;45.12
1472;BME280;963;42.644;23.336;2022-08-03T08:24:10;94308.56;;;26.13;45.50
1472;BME280;963;42.644;23.336;2022-08-03T08:26:36;94309.56;;;26.25;45.82
1472;BME280;963;42.644;23.336;2022-08-03T08:29:02;94311.66;;;26.30;45.98
1472;BME280;963;42.644;23.336;2022-08-03T08:31:27;94311.06;;;26.35;45.23
1472;BME280;963;42.644;23.336;2022-08-03T08:33:53;94309.41;;;26.37;44.56
1472;BME280;963;42.644;23.336;2022-08-03T08:36:18;94317.34;;;26.50;44.26
1472;BME280;963;42.644;23.336;2022-08-03T08:38:44;94296.00;;;26.61;44.19
1472;BME280;963;42.644;23.336;2022-08-03T08:41:10;94302.47;;;26.55;44.49
1472;BME280;963;42.644;23.336;2022-08-03T08:43:35;94294.75;;;26.71;44.06
1472;BME280;963;42.644;23.336;2022-08-03T08:46:01;94296.13;;;26.67;43.61
1472;BME280;963;42.644;23.336;2022-08-03T08:48:29;94303.00;;;26.77;44.08
1472;BME280;963;42.644;23.336;2022-08-03T08:50:55;94305.09;;;26.73;44.76
1472;BME280;963;42.644;23.336;2022-08-03T08:53:27;94289.91;;;26.85;43.78
1472;BME280;963;42.644;23.336;2022-08-03T08:55:56;94293.00;;;26.92;43.88
1472;BME280;963;42.644;23.336;2022-08-03T08:58:23;94291.31;;;27.04;43.56
1472;BME280;963;42.644;23.336;2022-08-03T09:00:50;94291.72;;;27.12;43.41
1472;BME280;963;42.644;23.336;2022-08-03T09:03:16;94292.97;;;27.01;43.20
1472;BME280;963;42.644;23.336;2022-08-03T09:05:42;94302.28;;;27.00;43.40
1472;BME280;963;42.644;23.336;2022-08-03T09:08:08;94289.38;;;27.04;43.34
1472;BME280;963;42.644;23.336;2022-08-03T09:10:33;94296.78;;;27.19;43.01
1472;BME280;963;42.644;23.336;2022-08-03T09:12:59;94297.31;;;27.32;42.33
1472;BME280;963;42.644;23.336;2022-08-03T09:15:30;94290.50;;;27.13;41.90
1472;BME280;963;42.644;23.336;2022-08-03T09:17:57;94287.47;;;27.20;41.99
1472;BME280;963;42.644;23.336;2022-08-03T09:20:25;94285.94;;;27.28;42.21
1472;BME280;963;42.644;23.336;2022-08-03T09:25:19;94296.72;;;27.52;41.91
1472;BME280;963;42.644;23.336;2022-08-03T09:27:45;94291.88;;;27.56;41.58
1472;BME280;963;42.644;23.336;2022-08-03T09:30:16;94283.91;;;27.76;41.48
1472;BME280;963;42.644;23.336;2022-08-03T09:32:42;94289.41;;;27.67;41.03
1472;BME280;963;42.644;23.336;2022-08-03T09:35:09;94286.38;;;27.89;40.49
1472;BME280;963;42.644;23.336;2022-08-03T09:37:35;94284.13;;;28.02;39.57
1472;BME280;963;42.644;23.336;2022-08-03T09:40:01;94279.47;;;27.88;39.37
1472;BME280;963;42.644;23.336;2022-08-03T09:42:26;94282.94;;;28.03;39.57
1472;BME280;963;42.644;23.336;2022-08-03T09:44:52;94281.72;;;28.04;39.72
1472;BME280;963;42.644;23.336;2022-08-03T09:47:32;94284.13;;;28.02;39.86
1472;BME280;963;42.644;23.336;2022-08-03T09:50:07;94275.53;;;28.18;40.53
1472;BME280;963;42.644;23.336;2022-08-03T09:52:39;94274.84;;;28.32;39.57
1472;BME280;963;42.644;23.336;2022-08-03T09:55:09;94269.03;;;28.40;40.36
1472;BME280;963;42.644;23.336;2022-08-03T09:57:35;94273.41;;;28.52;40.42
1472;BME280;963;42.644;23.336;2022-08-03T10:00:09;94282.72;;;28.66;40.07
1472;BME280;963;42.644;23.336;2022-08-03T10:02:36;94269.50;;;28.88;39.13
1472;BME280;963;42.644;23.336;2022-08-03T10:05:03;94272.69;;;28.86;38.72
1472;BME280;963;42.644;23.336;2022-08-03T10:07:28;94269.09;;;28.95;39.08
1472;BME280;963;42.644;23.336;2022-08-03T10:09:58;94274.31;;;28.99;39.10
1472;BME280;963;42.644;23.336;2022-08-03T10:12:25;94258.28;;;28.95;39.14
1472;BME280;963;42.644;23.336;2022-08-03T10:14:51;94255.72;;;29.06;38.30
1472;BME280;963;42.644;23.336;2022-08-03T10:17:17;94260.25;;;28.94;38.42
1472;BME280;963;42.644;23.336;2022-08-03T10:19:43;94254.63;;;28.98;38.50
1472;BME280;963;42.644;23.336;2022-08-03T10:22:15;94263.38;;;29.08;39.57
1472;BME280;963;42.644;23.336;2022-08-03T10:25:13;94265.38;;;28.92;39.28
1472;BME280;963;42.644;23.336;2022-08-03T10:27:41;94266.69;;;28.82;39.20
1472;BME280;963;42.644;23.336;2022-08-03T10:30:10;94254.94;;;28.85;38.89
1472;BME280;963;42.644;23.336;2022-08-03T10:32:43;94250.50;;;29.03;38.75
1472;BME280;963;42.644;23.336;2022-08-03T10:35:18;94238.38;;;29.39;37.93
1472;BME280;963;42.644;23.336;2022-08-03T10:37:56;94247.94;;;29.54;38.30
1472;BME280;963;42.644;23.336;2022-08-03T10:40:22;94238.00;;;29.72;37.51
1472;BME280;963;42.644;23.336;2022-08-03T10:42:50;94245.38;;;29.71;37.72
1472;BME280;963;42.644;23.336;2022-08-03T10:45:23;94235.53;;;30.00;37.78
1472;BME280;963;42.644;23.336;2022-08-03T10:47:50;94239.16;;;30.11;37.58
1472;BME280;963;42.644;23.336;2022-08-03T10:50:17;94237.22;;;30.17;37.07
1472;BME280;963;42.644;23.336;2022-08-03T10:52:58;94237.25;;;30.23;37.33
1472;BME280;963;42.644;23.336;2022-08-03T10:55:45;94247.06;;;30.15;37.08
1472;BME280;963;42.644;23.336;2022-08-03T11:01:17;94231.34;;;30.25;36.62
1472;BME280;963;42.644;23.336;2022-08-03T11:06:19;94238.34;;;30.37;36.18
1472;BME280;963;42.644;23.336;2022-08-03T11:11:39;94236.91;;;30.47;36.52
1472;BME280;963;42.644;23.336;2022-08-03T11:14:17;94221.53;;;30.33;36.45
1472;BME280;963;42.644;23.336;2022-08-03T11:16:48;94219.69;;;30.50;36.51
1472;BME280;963;42.644;23.336;2022-08-03T11:19:47;94220.81;;;30.69;36.10
1472;BME280;963;42.644;23.336;2022-08-03T11:22:13;94226.69;;;30.62;36.35
1472;BME280;963;42.644;23.336;2022-08-03T11:35:27;94202.00;;;30.60;35.42
1472;BME280;963;42.644;23.336;2022-08-03T11:43:08;94184.53;;;31.26;34.53
1472;BME280;963;42.644;23.336;2022-08-03T11:45:35;94186.41;;;31.09;34.82
1472;BME280;963;42.644;23.336;2022-08-03T11:48:16;94190.91;;;31.18;34.99
1472;BME280;963;42.644;23.336;2022-08-03T11:50:42;94196.09;;;31.21;35.11
1472;BME280;963;42.644;23.336;2022-08-03T11:53:13;94198.72;;;30.99;34.52
1472;BME280;963;42.644;23.336;2022-08-03T11:55:40;94191.41;;;31.22;35.45
1472;BME280;963;42.644;23.336;2022-08-03T11:58:07;94199.41;;;31.48;35.17
1472;BME280;963;42.644;23.336;2022-08-03T12:00:33;94188.84;;;31.72;34.27
1472;BME280;963;42.644;23.336;2022-08-03T12:05:50;94187.53;;;31.51;34.83
1472;BME280;963;42.644;23.336;2022-08-03T12:08:37;94189.50;;;31.39;35.39
1472;BME280;963;42.644;23.336;2022-08-03T12:11:04;94184.66;;;31.00;35.16
1472;BME280;963;42.644;23.336;2022-08-03T12:13:48;94184.88;;;30.97;36.17
1472;BME280;963;42.644;23.336;2022-08-03T12:16:19;94180.59;;;31.27;35.62
1472;BME280;963;42.644;23.336;2022-08-03T12:18:57;94177.66;;;31.53;35.28
1472;BME280;963;42.644;23.336;2022-08-03T12:21:23;94204.94;;;31.92;35.37
1472;BME280;963;42.644;23.336;2022-08-03T12:23:49;94182.44;;;32.25;34.89
1472;BME280;963;42.644;23.336;2022-08-03T12:26:15;94189.84;;;32.47;34.54
1472;BME280;963;42.644;23.336;2022-08-03T12:28:48;94179.44;;;32.51;33.71
1472;BME280;963;42.644;23.336;2022-08-03T12:31:13;94202.97;;;32.32;33.87
1472;BME280;963;42.644;23.336;2022-08-03T12:36:25;94164.78;;;32.65;32.42
1472;BME280;963;42.644;23.336;2022-08-03T12:38:55;94173.78;;;32.27;32.50
1472;BME280;963;42.644;23.336;2022-08-03T12:41:42;94171.75;;;32.55;31.63
1472;BME280;963;42.644;23.336;2022-08-03T12:44:08;94170.97;;;32.72;31.60
1472;BME280;963;42.644;23.336;2022-08-03T12:46:36;94178.66;;;32.68;31.63
1472;BME280;963;42.644;23.336;2022-08-03T12:49:10;94173.19;;;32.68;31.76
1472;BME280;963;42.644;23.336;2022-08-03T12:54:14;94155.69;;;32.29;32.57
1472;BME280;963;42.644;23.336;2022-08-03T12:57:05;94171.56;;;32.37;32.62
1472;BME280;963;42.644;23.336;2022-08-03T12:59:39;94165.78;;;32.62;32.26
1472;BME280;963;42.644;23.336;2022-08-03T13:02:24;94157.56;;;32.85;32.53
1472;BME280;963;42.644;23.336;2022-08-03T13:04:52;94149.03;;;32.36;33.01
1472;BME280;963;42.644;23.336;2022-08-03T13:07:19;94161.56;;;32.61;32.62
1472;BME280;963;42.644;23.336;2022-08-03T13:09:46;94145.94;;;32.84;32.96
1472;BME280;963;42.644;23.336;2022-08-03T13:12:13;94156.47;;;33.16;31.77
1472;BME280;963;42.644;23.336;2022-08-03T13:14:44;94147.97;;;33.31;31.74
1472;BME280;963;42.644;23.336;2022-08-03T13:17:10;94144.69;;;33.38;31.06
1472;BME280;963;42.644;23.336;2022-08-03T13:19:36;94146.19;;;33.39;31.62
1472;BME280;963;42.644;23.336;2022-08-03T13:22:21;94166.59;;;32.29;33.72
1472;BME280;963;42.644;23.336;2022-08-03T13:24:50;94157.28;;;32.94;32.77
1472;BME280;963;42.644;23.336;2022-08-03T13:27:16;94159.09;;;32.80;33.29
1472;BME280;963;42.644;23.336;2022-08-03T13:29:42;94154.56;;;32.94;33.43
1472;BME280;963;42.644;23.336;2022-08-03T13:32:07;94148.78;;;33.14;33.21
1472;BME280;963;42.644;23.336;2022-08-03T13:34:33;94151.41;;;32.79;33.32
1472;BME280;963;42.644;23.336;2022-08-03T13:36:59;94159.38;;;31.59;35.10
1472;BME280;963;42.644;23.336;2022-08-03T13:39:24;94160.34;;;30.74;36.84
1472;BME280;963;42.644;23.336;2022-08-03T13:41:51;94155.63;;;30.01;38.66
1472;BME280;963;42.644;23.336;2022-08-03T13:44:17;94165.38;;;29.35;40.05
1472;BME280;963;42.644;23.336;2022-08-03T13:46:43;94162.19;;;28.70;41.49
1472;BME280;963;42.644;23.336;2022-08-03T13:49:09;94162.19;;;29.11;40.68
1472;BME280;963;42.644;23.336;2022-08-03T13:51:34;94174.34;;;28.60;41.74
1472;BME280;963;42.644;23.336;2022-08-03T13:54:00;94176.09;;;28.43;41.69
1472;BME280;963;42.644;23.336;2022-08-03T13:56:26;94182.56;;;28.30;41.98
1472;BME280;963;42.644;23.336;2022-08-03T13:58:52;94182.63;;;28.21;41.82
1472;BME280;963;42.644;23.336;2022-08-03T14:01:17;94187.13;;;28.24;42.31
1472;BME280;963;42.644;23.336;2022-08-03T14:03:43;94179.28;;;28.12;42.55
1472;BME280;963;42.644;23.336;2022-08-03T14:06:08;94191.00;;;28.23;42.92
1472;BME280;963;42.644;23.336;2022-08-03T14:08:34;94178.38;;;28.29;42.83
1472;BME280;963;42.644;23.336;2022-08-03T14:10:59;94190.28;;;28.23;43.42
1472;BME280;963;42.644;23.336;2022-08-03T14:13:25;94183.59;;;27.74;44.51